Main page
METAR-TAF:

METAR-TAF

Airports :

Parma, Italy

Parma Airport

latitude: 44-49-17N, longitude: 010-17-41E, elevation: 50 m

Current weather observation

The report was made 40 minutes ago, at 12:50 UTC
Wind 1 kt from variable directions
Temperature 24°C
Humidity 57%
Pressure 1017 hPa
Visibility 10 km or more
no clouds below 1500 m and no cumulonimbus

METAR: LIMP 231250Z VRB01KT CAVOK 24/15 Q1017

Time: 15:30 (13:30 UTC)

Forecast

The report was made 2 hours and 30 minutes ago, at 11:00 UTC
Forecast valid from 23 at 12 UTC to 24 at 12 UTC
Wind 5 kt from variable directions
Visibility 10 km or more
Scattered clouds at a height of 6000 ft
Probability 40% :
Temporary
from 24 at 10 UTC to 24 at 12 UTC
Visibility: 4000 m
thunderstorm, rain

TAF: LIMP 231100Z 2312/2412 VRB05KT 9999 SCT060 PROB40 TEMPO 2410/2412 4000 TSRA

Weather observations and forecasts of more than 4000 airports (METAR and TAF reports).

The available stations are represented by yellow and red dots on the map.

Hover mouse over dot to see the name of the station.

Then click to see weather observations and forecasts.

To change the map : click on the green buttons with a black cross to zoom in, on the green button with a dash to zoom out, or on the green arrows for adjacent maps.


METAR-TAF: